Time;durP1;ratioP1;P1;durP2;ratioP2;P2;SDS_P1;SDS_P2;PMS_P1;PMS_P2;Temp;Humidity;BMP_temperature;BMP_pressure;BME280_temperature;BME280_humidity;BME280_pressure;Samples;Min_cycle;Max_cycle;Signal;HPM_P1;HPM_P2
2022/08/22 03:01:54;;;;;;;0.70;0.70;;;19.40;61.50;;;;;;5557317;22;20565;-76
2022/08/22 03:04:26;;;;;;;0.87;0.80;;;19.40;61.70;;;;;;5034192;28;20443;-76
2022/08/22 03:07:11;;;;;;;0.70;0.60;;;19.40;61.70;;;;;;5034421;28;20479;-77
2022/08/22 03:09:45;;;;;;;0.90;0.90;;;19.40;61.70;;;;;;5034145;28;20467;-77
2022/08/22 03:12:19;;;;;;;0.80;0.73;;;19.40;61.70;;;;;;5034148;28;20472;-77
2022/08/22 03:15:06;;;;;;;0.90;0.70;;;19.30;62.00;;;;;;5034196;28;20829;-76
2022/08/22 03:17:45;;;;;;;0.90;0.70;;;19.30;62.10;;;;;;5035649;28;20444;-77
2022/08/22 03:20:18;;;;;;;0.80;0.70;;;19.30;62.10;;;;;;5034021;28;20431;-77
2022/08/22 03:22:53;;;;;;;0.80;0.80;;;19.30;61.90;;;;;;5033976;28;20510;-77
2022/08/22 03:25:29;;;;;;;0.80;0.80;;;19.20;62.20;;;;;;5034606;28;20427;-77
2022/08/22 03:28:00;;;;;;;0.83;0.83;;;19.20;62.60;;;;;;5034065;28;20800;-77
2022/08/22 03:30:34;;;;;;;0.80;0.80;;;19.10;62.60;;;;;;5033850;28;20515;-77
2022/08/22 03:33:17;;;;;;;0.80;0.80;;;19.10;62.60;;;;;;5034022;28;20489;-77
2022/08/22 03:36:03;;;;;;;0.90;0.90;;;19.10;62.80;;;;;;5033533;28;20505;-77
2022/08/22 03:38:47;;;;;;;0.90;0.90;;;19.00;63.10;;;;;;5033304;28;20911;-77
2022/08/22 03:41:48;;;;;;;0.70;0.70;;;19.00;63.30;;;;;;5033649;28;20475;-76
2022/08/22 03:44:45;;;;;;;0.80;0.73;;;18.90;63.30;;;;;;5033711;28;20439;-77
2022/08/22 03:47:31;;;;;;;0.77;0.77;;;18.90;63.50;;;;;;5007609;28;20848;-77
2022/08/22 03:50:22;;;;;;;0.97;0.80;;;18.90;63.50;;;;;;5033652;28;20428;-77
2022/08/22 03:53:25;;;;;;;0.80;0.70;;;18.80;63.60;;;;;;5033357;28;20421;-77
2022/08/22 03:56:31;;;;;;;0.70;0.70;;;18.80;63.50;;;;;;5033059;28;20481;-77
2022/08/22 03:59:30;;;;;;;0.80;0.80;;;18.80;63.50;;;;;;5033426;28;20463;-77
2022/08/22 04:02:21;;;;;;;0.70;0.70;;;18.70;63.90;;;;;;5031037;28;20537;-77
2022/08/22 04:05:14;;;;;;;0.80;0.80;;;18.70;63.60;;;;;;5033407;28;20432;-76
2022/08/22 04:08:08;;;;;;;0.80;0.80;;;18.60;63.70;;;;;;5033411;28;20490;-77
2022/08/22 04:11:12;;;;;;;0.80;0.80;;;18.60;63.60;;;;;;5033006;28;20841;-77
2022/08/22 04:13:53;;;;;;;0.80;0.70;;;18.50;63.60;;;;;;5023495;28;20508;-77
2022/08/22 04:17:00;;;;;;;1.03;0.80;;;18.50;63.60;;;;;;5033304;28;20482;-77
2022/08/22 04:19:55;;;;;;;0.80;0.70;;;18.40;63.80;;;;;;5032897;28;21036;-77
2022/08/22 04:22:52;;;;;;;0.70;0.60;;;18.40;64.00;;;;;;5033266;28;20467;-77
2022/08/22 04:25:24;;;;;;;0.80;0.70;;;18.40;64.50;;;;;;5033231;28;20439;-77
2022/08/22 04:27:58;;;;;;;0.87;0.87;;;18.30;64.70;;;;;;5033410;28;20436;-77
2022/08/22 04:30:30;;;;;;;0.80;0.80;;;18.30;64.70;;;;;;5033109;28;20432;-77
2022/08/22 04:33:04;;;;;;;0.80;0.80;;;18.30;64.80;;;;;;5033040;28;20445;-77
2022/08/22 04:35:35;;;;;;;1.00;0.90;;;18.30;65.00;;;;;;5033371;28;20420;-77
2022/08/22 04:38:07;;;;;;;0.80;0.70;;;18.30;65.00;;;;;;5033224;28;20443;-77
2022/08/22 04:40:43;;;;;;;0.73;0.73;;;18.30;64.90;;;;;;5033120;28;20472;-77
2022/08/22 04:43:16;;;;;;;0.80;0.70;;;18.40;64.90;;;;;;5033394;28;20475;-77
2022/08/22 04:45:50;;;;;;;0.90;0.90;;;18.40;64.80;;;;;;5033191;28;20432;-76
2022/08/22 04:48:26;;;;;;;0.77;0.77;;;18.40;65.00;;;;;;5036090;28;20435;-76
2022/08/22 04:50:57;;;;;;;0.90;0.90;;;18.40;64.80;;;;;;5036697;28;20459;-77
2022/08/22 04:53:40;;;;;;;0.90;0.90;;;18.40;64.90;;;;;;5036704;28;20439;-76
2022/08/22 04:56:18;;;;;;;2.20;0.73;;;18.40;64.90;;;;;;5036696;28;20493;-76
2022/08/22 04:58:48;;;;;;;0.80;0.70;;;18.40;65.10;;;;;;5036544;28;20435;-76
2022/08/22 05:01:18;;;;;;;0.70;0.70;;;18.40;65.00;;;;;;5036069;28;20486;-76
2022/08/22 05:03:56;;;;;;;0.70;0.70;;;18.40;64.80;;;;;;5036397;28;20432;-77
2022/08/22 05:06:28;;;;;;;0.80;0.80;;;18.50;64.90;;;;;;5036103;28;20914;-77
2022/08/22 05:08:59;;;;;;;0.77;0.70;;;18.60;65.60;;;;;;5036391;28;20463;-76
2022/08/22 05:11:29;;;;;;;0.80;0.80;;;18.60;65.30;;;;;;5036193;28;20555;-76
2022/08/22 05:14:02;;;;;;;0.70;0.70;;;18.70;65.00;;;;;;5036309;28;20470;-77
2022/08/22 05:16:34;;;;;;;1.80;0.80;;;18.80;64.40;;;;;;5036198;28;20436;-76
2022/08/22 05:19:04;;;;;;;0.70;0.70;;;18.90;64.80;;;;;;5035810;28;20907;-76
2022/08/22 05:21:35;;;;;;;0.80;0.80;;;18.90;64.90;;;;;;5036003;28;20463;-77
2022/08/22 05:24:05;;;;;;;0.80;0.80;;;19.00;64.60;;;;;;5036212;28;20428;-76
2022/08/22 05:26:38;;;;;;;0.70;0.70;;;19.10;64.50;;;;;;5036039;28;20466;-76
2022/08/22 05:29:07;;;;;;;0.87;0.83;;;19.10;64.50;;;;;;5036033;28;20435;-77
2022/08/22 05:31:38;;;;;;;0.80;0.70;;;19.10;64.50;;;;;;5035963;28;20464;-77
2022/08/22 05:34:11;;;;;;;0.80;0.80;;;19.10;64.70;;;;;;5036578;28;20432;-76
2022/08/22 05:36:41;;;;;;;0.80;0.80;;;19.10;64.90;;;;;;5036433;28;20440;-77
2022/08/22 05:39:12;;;;;;;1.03;0.93;;;19.10;64.80;;;;;;5036859;28;20466;-76
2022/08/22 05:41:43;;;;;;;0.80;0.80;;;19.10;64.70;;;;;;5036957;28;20472;-77
2022/08/22 05:44:19;;;;;;;0.70;0.70;;;19.30;64.40;;;;;;5037303;28;20447;-77
2022/08/22 05:46:49;;;;;;;0.80;0.70;;;19.40;64.20;;;;;;5036753;28;20474;-77
2022/08/22 05:49:20;;;;;;;0.70;0.70;;;19.60;64.20;;;;;;5037245;28;20440;-76
2022/08/22 05:51:53;;;;;;;0.90;0.90;;;19.80;63.70;;;;;;5037228;28;20478;-77
2022/08/22 05:54:24;;;;;;;0.70;0.70;;;19.90;63.40;;;;;;5038029;28;20436;-77
2022/08/22 05:56:58;;;;;;;0.80;0.80;;;20.00;62.80;;;;;;5036432;28;20440;-77
2022/08/22 05:59:27;;;;;;;0.80;0.80;;;20.10;62.30;;;;;;5036274;28;20898;-77
2022/08/22 06:02:03;;;;;;;0.80;0.70;;;20.20;62.20;;;;;;5036951;28;20490;-76
2022/08/22 06:04:37;;;;;;;0.73;0.73;;;20.40;61.00;;;;;;5039562;28;20467;-77
2022/08/22 06:07:07;;;;;;;0.80;0.70;;;20.50;61.30;;;;;;5040078;28;20427;-77
2022/08/22 06:09:56;;;;;;;0.80;0.80;;;20.70;61.10;;;;;;5039373;28;20432;-77
2022/08/22 06:12:31;;;;;;;0.90;0.80;;;20.90;61.30;;;;;;5037537;28;20829;-77
2022/08/22 06:15:04;;;;;;;0.80;0.70;;;20.80;61.20;;;;;;5039101;28;20431;-79
2022/08/22 06:17:34;;;;;;;1.10;0.90;;;20.60;61.80;;;;;;5045093;28;20435;-78
2022/08/22 06:20:02;;;;;;;0.77;0.77;;;20.90;62.20;;;;;;5038964;28;20557;-77
2022/08/22 06:22:32;;;;;;;0.80;0.80;;;21.20;60.80;;;;;;5038848;28;20472;-78
2022/08/22 06:25:12;;;;;;;0.80;0.73;;;21.30;61.50;;;;;;5038289;28;20451;-79
2022/08/22 06:27:41;;;;;;;0.80;0.80;;;21.70;60.80;;;;;;5048458;28;20438;-78
2022/08/22 06:30:13;;;;;;;1.10;1.00;;;21.70;61.00;;;;;;5050080;28;20450;-79
2022/08/22 06:32:44;;;;;;;1.37;0.90;;;22.00;61.40;;;;;;5051161;28;20460;-79
2022/08/22 06:35:18;;;;;;;1.37;1.10;;;22.20;61.80;;;;;;5048606;28;20444;-79
2022/08/22 06:37:47;;;;;;;1.27;1.17;;;22.50;61.50;;;;;;5045812;28;20900;-80
2022/08/22 06:40:16;;;;;;;1.23;1.10;;;22.50;61.20;;;;;;5049887;28;20487;-79
2022/08/22 06:42:48;;;;;;;1.60;1.10;;;22.80;61.00;;;;;;5048643;28;20831;-80
2022/08/22 06:45:18;;;;;;;2.13;0.97;;;23.00;60.60;;;;;;5051247;28;20454;-80
2022/08/22 06:47:49;;;;;;;0.93;0.93;;;23.30;59.60;;;;;;5052114;28;20435;-80
2022/08/22 06:50:21;;;;;;;1.53;0.90;;;23.50;59.20;;;;;;5050727;28;20510;-79
2022/08/22 06:52:56;;;;;;;1.07;0.97;;;23.60;60.10;;;;;;5052749;28;20439;-80
2022/08/22 06:55:25;;;;;;;1.10;1.00;;;23.60;60.20;;;;;;5052090;28;20454;-79
2022/08/22 06:57:57;;;;;;;1.63;1.00;;;23.70;60.40;;;;;;5052685;28;20474;-79
2022/08/22 07:00:25;;;;;;;0.90;0.90;;;23.80;60.10;;;;;;5047656;28;20507;-79
2022/08/22 07:02:57;;;;;;;1.37;1.27;;;24.00;59.90;;;;;;5049528;28;20845;-79
2022/08/22 07:05:28;;;;;;;1.20;1.10;;;24.00;60.30;;;;;;5044513;28;20440;-79
2022/08/22 07:07:56;;;;;;;1.10;1.00;;;24.10;59.70;;;;;;5042565;28;20436;-77
2022/08/22 07:10:24;;;;;;;1.50;1.40;;;24.10;58.30;;;;;;5043468;28;20443;-77
2022/08/22 07:12:56;;;;;;;1.10;1.00;;;23.80;59.10;;;;;;5042377;28;20455;-77
2022/08/22 07:15:32;;;;;;;1.00;1.00;;;24.10;59.60;;;;;;5042403;28;20417;-77
2022/08/22 07:18:03;;;;;;;1.30;1.20;;;24.30;59.00;;;;;;5042812;28;20435;-78
2022/08/22 07:20:33;;;;;;;0.90;0.90;;;24.40;58.70;;;;;;5042252;28;20467;-78
2022/08/22 07:23:06;;;;;;;1.50;1.40;;;24.60;58.60;;;;;;5039808;28;20976;-77
2022/08/22 07:25:43;;;;;;;1.00;1.00;;;24.90;58.10;;;;;;5038119;28;20427;-78
2022/08/22 07:28:25;;;;;;;1.00;1.00;;;24.90;56.50;;;;;;5041264;28;20436;-77
2022/08/22 07:30:56;;;;;;;1.17;1.00;;;24.90;57.00;;;;;;5042980;28;20463;-77
2022/08/22 07:33:43;;;;;;;1.37;1.00;;;24.70;55.50;;;;;;5042785;28;20432;-77
2022/08/22 07:36:20;;;;;;;1.27;1.00;;;24.70;56.90;;;;;;5043370;28;20423;-77
2022/08/22 07:38:56;;;;;;;1.13;1.03;;;25.10;56.40;;;;;;5038114;28;20806;-76
2022/08/22 07:41:27;;;;;;;0.93;0.93;;;25.40;55.90;;;;;;5035601;28;20487;-75
2022/08/22 07:44:05;;;;;;;2.50;0.90;;;25.30;55.10;;;;;;5035581;28;20454;-76
2022/08/22 07:46:35;;;;;;;1.00;0.70;;;25.50;54.70;;;;;;5037149;28;20490;-75
2022/08/22 07:49:12;;;;;;;0.90;0.90;;;25.40;54.90;;;;;;5038857;28;20436;-75
2022/08/22 07:51:43;;;;;;;0.90;0.80;;;25.30;55.20;;;;;;5037190;28;21005;-75
2022/08/22 07:54:12;;;;;;;2.90;0.87;;;25.40;55.60;;;;;;5037333;28;20444;-76
2022/08/22 07:56:44;;;;;;;0.80;0.80;;;25.50;55.70;;;;;;5037884;28;20447;-75
2022/08/22 07:59:15;;;;;;;0.80;0.80;;;25.70;54.50;;;;;;5035008;28;20934;-74
2022/08/22 08:01:46;;;;;;;0.90;0.90;;;25.70;54.00;;;;;;5034549;28;20495;-75
2022/08/22 08:04:17;;;;;;;0.80;0.70;;;25.60;55.10;;;;;;5034259;28;20439;-74
2022/08/22 08:06:47;;;;;;;1.00;0.80;;;25.50;54.30;;;;;;5034574;28;20501;-75
2022/08/22 08:09:15;;;;;;;1.10;0.93;;;25.50;54.80;;;;;;5033350;28;20840;-75
2022/08/22 08:11:44;;;;;;;0.80;0.77;;;25.40;54.00;;;;;;5033319;28;20558;-73
2022/08/22 08:14:15;;;;;;;0.80;0.70;;;25.50;55.50;;;;;;5033236;28;20452;-74
2022/08/22 08:16:46;;;;;;;1.00;0.90;;;25.20;52.40;;;;;;5033259;28;20490;-73
2022/08/22 08:19:16;;;;;;;0.80;0.70;;;25.10;52.70;;;;;;5033305;28;20440;-74
2022/08/22 08:21:49;;;;;;;0.70;0.70;;;25.30;51.90;;;;;;5035075;28;20488;-75
2022/08/22 08:24:19;;;;;;;1.77;0.80;;;25.30;52.20;;;;;;5037096;28;20490;-74
2022/08/22 08:29:38;;;;;;;0.80;0.70;;;25.50;52.10;;;;;;5037170;28;20767;-72
2022/08/22 08:32:08;;;;;;;0.70;0.67;;;24.90;52.80;;;;;;5037109;28;20542;-75
2022/08/22 08:34:38;;;;;;;0.80;0.70;;;24.80;53.60;;;;;;5037042;28;20451;-76
2022/08/22 08:37:12;;;;;;;1.27;0.70;;;24.90;55.20;;;;;;5036978;28;20455;-74
2022/08/22 08:39:44;;;;;;;0.80;0.77;;;25.20;54.40;;;;;;5036925;28;20431;-75
2022/08/22 08:45:50;;;;;;;0.90;0.80;;;25.60;53.70;;;;;;5036153;28;20817;-75
2022/08/22 08:48:38;;;;;;;0.80;0.80;;;25.80;53.40;;;;;;5036701;28;20474;-75
2022/08/22 08:51:23;;;;;;;1.77;0.70;;;25.90;53.40;;;;;;5036537;28;20471;-75
2022/08/22 08:54:10;;;;;;;0.70;0.60;;;26.10;53.00;;;;;;5036628;28;20432;-76
2022/08/22 08:56:48;;;;;;;1.40;0.77;;;26.30;52.70;;;;;;5036236;28;20801;-76
2022/08/22 08:59:27;;;;;;;0.90;0.70;;;26.60;52.40;;;;;;5036216;28;20903;-75
2022/08/22 09:02:30;;;;;;;1.07;0.70;;;26.60;51.90;;;;;;5035696;28;20533;-76
2022/08/22 09:05:21;;;;;;;1.43;0.80;;;26.60;51.70;;;;;;5033718;28;20455;-75
2022/08/22 09:08:25;;;;;;;0.80;0.70;;;26.20;52.00;;;;;;5007523;28;20447;-75
2022/08/22 09:11:13;;;;;;;0.90;0.80;;;26.30;51.90;;;;;;5036290;28;20459;-75
2022/08/22 09:13:53;;;;;;;0.80;0.80;;;26.20;52.10;;;;;;5035882;28;20903;-75
2022/08/22 09:16:42;;;;;;;0.80;0.70;;;26.30;52.90;;;;;;5037311;28;20848;-75
2022/08/22 09:19:36;;;;;;;1.00;0.90;;;26.40;52.30;;;;;;5036128;28;20436;-75
2022/08/22 09:22:20;;;;;;;0.80;0.70;;;26.30;51.40;;;;;;5035692;28;20541;-75
2022/08/22 09:25:10;;;;;;;0.97;0.97;;;26.30;52.30;;;;;;5036506;28;20432;-75
2022/08/22 09:27:46;;;;;;;0.80;0.70;;;26.40;52.20;;;;;;5035986;28;20435;-75
2022/08/22 09:30:16;;;;;;;0.70;0.70;;;26.60;52.50;;;;;;5035952;28;20432;-76
2022/08/22 09:32:53;;;;;;;0.80;0.80;;;26.70;52.50;;;;;;5035144;28;20475;-75
2022/08/22 09:35:26;;;;;;;0.70;0.60;;;26.70;51.00;;;;;;5035884;28;20470;-76
2022/08/22 09:38:21;;;;;;;0.80;0.70;;;26.30;52.40;;;;;;5035512;28;20969;-76
2022/08/22 09:40:53;;;;;;;0.87;0.80;;;26.40;52.10;;;;;;5035316;28;20574;-75
2022/08/22 09:43:26;;;;;;;0.70;0.60;;;26.60;52.90;;;;;;5035684;28;20516;-75
2022/08/22 09:46:05;;;;;;;0.87;0.87;;;26.60;50.70;;;;;;5035662;28;20486;-75
2022/08/22 09:48:47;;;;;;;0.70;0.60;;;26.50;52.60;;;;;;5035578;28;20427;-75
2022/08/22 09:51:27;;;;;;;0.73;0.63;;;26.20;52.30;;;;;;5035569;28;20474;-75
2022/08/22 09:54:22;;;;;;;0.80;0.67;;;26.30;51.40;;;;;;5035438;28;20490;-76
2022/08/22 09:57:02;;;;;;;0.90;0.70;;;26.30;50.90;;;;;;5035474;28;20511;-75
2022/08/22 09:59:44;;;;;;;0.70;0.70;;;26.60;51.90;;;;;;5035693;28;20435;-74
2022/08/22 10:02:23;;;;;;;1.07;0.70;;;26.50;52.20;;;;;;5034849;28;20991;-76
2022/08/22 10:04:57;;;;;;;0.70;0.70;;;26.80;50.50;;;;;;5035531;28;20435;-76
2022/08/22 10:07:34;;;;;;;0.80;0.70;;;27.10;51.10;;;;;;5035343;28;20432;-75
2022/08/22 10:10:15;;;;;;;0.93;0.83;;;27.20;48.90;;;;;;5035204;28;20432;-75
2022/08/22 10:12:51;;;;;;;0.80;0.70;;;27.10;49.60;;;;;;5034829;28;20986;-76
2022/08/22 10:15:22;;;;;;;0.80;0.70;;;27.30;47.50;;;;;;5035171;28;20522;-76
2022/08/22 10:18:03;;;;;;;0.90;0.80;;;27.50;49.50;;;;;;5035130;28;20436;-75
2022/08/22 10:20:35;;;;;;;0.70;0.60;;;27.70;50.40;;;;;;5036193;28;20440;-75
2022/08/22 10:23:14;;;;;;;0.90;0.60;;;27.80;48.20;;;;;;5036441;28;20923;-75
2022/08/22 10:25:48;;;;;;;0.80;0.80;;;28.20;46.60;;;;;;5034999;28;20463;-74
2022/08/22 10:28:30;;;;;;;0.70;0.70;;;28.20;48.00;;;;;;5034973;28;20440;-76
2022/08/22 10:31:19;;;;;;;0.80;0.70;;;28.40;47.90;;;;;;5034820;28;20540;-75
2022/08/22 10:33:57;;;;;;;0.80;0.60;;;28.60;47.10;;;;;;5035231;28;20463;-74
2022/08/22 10:36:32;;;;;;;0.80;0.63;;;28.10;45.70;;;;;;5034647;28;20435;-74
2022/08/22 10:39:03;;;;;;;0.73;0.70;;;27.60;47.20;;;;;;5034668;28;20468;-74
2022/08/22 10:41:36;;;;;;;0.80;0.60;;;28.00;46.40;;;;;;5034913;28;20495;-73
2022/08/22 10:44:12;;;;;;;0.77;0.77;;;28.40;44.30;;;;;;5033914;28;20436;-73
2022/08/22 10:46:42;;;;;;;0.80;0.70;;;28.30;45.10;;;;;;5033928;28;20462;-70
2022/08/22 10:49:18;;;;;;;0.70;0.67;;;28.10;45.50;;;;;;5034383;28;20801;-71
2022/08/22 10:51:49;;;;;;;0.70;0.60;;;28.20;46.20;;;;;;5034466;28;20460;-71
2022/08/22 10:54:26;;;;;;;0.70;0.60;;;28.20;44.40;;;;;;5034632;28;20485;-70
2022/08/22 10:57:06;;;;;;;1.00;0.70;;;27.90;44.20;;;;;;5033961;28;20800;-72
2022/08/22 10:59:40;;;;;;;0.80;0.70;;;27.90;44.10;;;;;;5034423;28;20439;-73
2022/08/22 11:02:29;;;;;;;0.80;0.70;;;27.70;44.30;;;;;;5033742;28;20541;-74
2022/08/22 11:05:17;;;;;;;0.80;0.70;;;28.00;43.80;;;;;;5034143;28;20455;-73
2022/08/22 11:07:48;;;;;;;0.93;0.70;;;28.00;44.90;;;;;;5034104;28;20442;-73
2022/08/22 11:10:24;;;;;;;0.70;0.70;;;28.20;44.20;;;;;;5034058;28;20423;-73
2022/08/22 11:13:08;;;;;;;0.70;0.70;;;28.30;43.80;;;;;;5033947;28;20775;-73
2022/08/22 11:15:56;;;;;;;0.80;0.70;;;28.10;44.00;;;;;;5033927;28;20432;-73
2022/08/22 11:18:33;;;;;;;0.90;0.63;;;28.20;43.50;;;;;;5033906;28;20518;-73
2022/08/22 11:21:04;;;;;;;0.93;0.70;;;28.40;44.40;;;;;;5033687;28;20513;-74
2022/08/22 11:23:40;;;;;;;0.70;0.60;;;28.70;43.50;;;;;;5033814;28;20436;-74
2022/08/22 11:26:23;;;;;;;0.70;0.60;;;28.70;42.40;;;;;;5033758;28;20467;-73
2022/08/22 11:29:02;;;;;;;0.80;0.70;;;28.60;42.80;;;;;;5033703;28;20482;-73
2022/08/22 11:31:39;;;;;;;0.70;0.60;;;29.10;42.70;;;;;;5033626;28;20486;-73
2022/08/22 11:34:15;;;;;;;0.80;0.70;;;29.60;42.00;;;;;;5033690;28;20428;-73
2022/08/22 11:36:50;;;;;;;0.90;0.70;;;29.80;41.50;;;;;;5033592;28;20485;-73
2022/08/22 11:39:24;;;;;;;0.70;0.70;;;29.80;41.40;;;;;;5033533;28;20435;-73
2022/08/22 11:41:58;;;;;;;0.73;0.60;;;29.90;41.70;;;;;;5033367;28;20494;-73
2022/08/22 11:44:31;;;;;;;0.70;0.70;;;30.00;41.30;;;;;;5033491;28;20428;-73
2022/08/22 11:47:00;;;;;;;0.70;0.70;;;30.40;40.90;;;;;;5033429;28;20436;-72
2022/08/22 11:49:44;;;;;;;0.70;0.70;;;30.60;40.00;;;;;;5033398;28;20500;-73
2022/08/22 11:52:19;;;;;;;0.77;0.67;;;30.90;39.90;;;;;;5033308;28;20464;-73
2022/08/22 11:54:59;;;;;;;0.80;0.70;;;31.00;39.70;;;;;;5033107;28;20477;-72
2022/08/22 11:57:33;;;;;;;0.77;0.67;;;30.80;38.80;;;;;;5033011;28;20440;-73
2022/08/22 12:00:12;;;;;;;0.70;0.70;;;30.60;38.00;;;;;;5033344;28;20521;-73
2022/08/22 12:02:46;;;;;;;0.70;0.60;;;30.40;38.30;;;;;;5032791;28;20498;-73
2022/08/22 12:05:19;;;;;;;0.80;0.70;;;30.30;40.10;;;;;;5033285;28;20432;-73
2022/08/22 12:07:54;;;;;;;1.10;0.70;;;29.90;41.20;;;;;;5033213;28;20494;-73
2022/08/22 12:10:25;;;;;;;0.70;0.60;;;29.90;41.30;;;;;;5033250;28;20431;-74
2022/08/22 12:12:59;;;;;;;0.70;0.70;;;29.80;41.20;;;;;;5032871;28;20905;-74
2022/08/22 12:15:36;;;;;;;0.70;0.60;;;29.80;41.80;;;;;;5033191;28;20439;-74
2022/08/22 12:18:40;;;;;;;0.77;0.77;;;29.40;42.40;;;;;;5033683;28;20484;-73
2022/08/22 12:21:45;;;;;;;0.70;0.60;;;29.70;42.30;;;;;;5033034;28;20466;-73
2022/08/22 12:24:26;;;;;;;0.80;0.70;;;29.90;40.50;;;;;;5033133;28;20439;-73
2022/08/22 12:27:21;;;;;;;0.80;0.60;;;29.90;40.70;;;;;;5033102;28;20431;-73
2022/08/22 12:30:03;;;;;;;0.70;0.60;;;30.20;41.20;;;;;;5030916;28;20447;-74
2022/08/22 12:33:01;;;;;;;0.70;0.70;;;30.50;41.90;;;;;;5032966;28;20470;-73
2022/08/22 12:35:39;;;;;;;0.70;0.60;;;30.40;41.00;;;;;;5032713;28;20848;-73
2022/08/22 12:38:18;;;;;;;1.00;0.70;;;30.70;42.10;;;;;;5033043;28;20482;-75
2022/08/22 12:41:01;;;;;;;0.70;0.60;;;30.70;41.30;;;;;;5032834;28;20466;-73
2022/08/22 12:43:46;;;;;;;0.70;0.70;;;30.90;39.80;;;;;;5032899;28;20451;-74
2022/08/22 12:46:17;;;;;;;0.70;0.70;;;30.80;41.40;;;;;;5032942;28;20481;-74
2022/08/22 12:49:03;;;;;;;0.80;0.60;;;31.00;41.50;;;;;;5032878;28;20420;-73
2022/08/22 12:51:36;;;;;;;0.80;0.67;;;30.40;42.20;;;;;;5032772;28;20467;-72
2022/08/22 12:54:31;;;;;;;0.70;0.70;;;30.10;42.80;;;;;;5033362;28;20482;-74
2022/08/22 12:57:10;;;;;;;0.70;0.70;;;30.20;42.10;;;;;;5032814;28;20478;-74
2022/08/22 12:59:41;;;;;;;0.73;0.60;;;30.20;42.10;;;;;;5032852;28;20428;-74
2022/08/22 13:02:15;;;;;;;0.70;0.70;;;29.90;42.30;;;;;;5032404;28;20586;-73
2022/08/22 13:04:49;;;;;;;0.80;0.70;;;29.90;42.30;;;;;;5032737;28;20431;-75
2022/08/22 13:07:24;;;;;;;0.93;0.73;;;29.90;41.70;;;;;;5032393;28;21002;-73
2022/08/22 13:09:56;;;;;;;0.80;0.70;;;29.90;41.80;;;;;;5036252;28;20522;-73
2022/08/22 13:12:28;;;;;;;0.70;0.67;;;29.70;41.40;;;;;;5036148;28;20521;-74
2022/08/22 13:14:59;;;;;;;0.80;0.60;;;29.30;41.80;;;;;;5036170;28;20494;-73
2022/08/22 13:17:26;;;;;;;0.70;0.67;;;28.90;42.00;;;;;;5036189;28;20443;-74
2022/08/22 13:20:04;;;;;;;0.80;0.70;;;28.80;43.70;;;;;;5036083;28;20451;-74
2022/08/22 13:22:33;;;;;;;0.80;0.60;;;28.90;43.20;;;;;;5036204;28;20483;-74
2022/08/22 13:25:05;;;;;;;0.80;0.70;;;28.60;43.20;;;;;;5035660;28;20841;-73
2022/08/22 13:27:34;;;;;;;0.83;0.70;;;28.70;44.10;;;;;;5036015;28;20436;-74
2022/08/22 13:30:04;;;;;;;0.70;0.60;;;28.80;43.40;;;;;;5035908;28;20440;-74
2022/08/22 13:32:38;;;;;;;0.70;0.60;;;29.10;43.80;;;;;;5035781;28;20471;-73
2022/08/22 13:35:09;;;;;;;0.70;0.70;;;29.20;43.00;;;;;;5035789;28;20432;-73
2022/08/22 13:37:39;;;;;;;0.70;0.60;;;29.20;42.30;;;;;;5035470;28;20934;-74
2022/08/22 13:40:10;;;;;;;0.70;0.60;;;29.00;43.00;;;;;;5036476;28;20435;-74
2022/08/22 13:42:44;;;;;;;0.70;0.60;;;29.00;42.80;;;;;;5035443;28;20569;-73
2022/08/22 13:45:16;;;;;;;0.83;0.67;;;29.00;42.90;;;;;;5035840;28;20514;-71
2022/08/22 13:47:51;;;;;;;0.80;0.60;;;28.60;43.20;;;;;;5036500;28;20432;-71
2022/08/22 13:50:22;;;;;;;0.90;0.70;;;28.80;43.20;;;;;;5035665;28;20439;-72
2022/08/22 13:52:55;;;;;;;0.73;0.60;;;29.30;43.10;;;;;;5035621;28;20435;-73
2022/08/22 13:55:29;;;;;;;0.70;0.70;;;29.50;40.90;;;;;;5035541;28;20548;-72
2022/08/22 13:58:01;;;;;;;1.20;0.70;;;29.20;42.10;;;;;;5035485;28;20793;-72
2022/08/22 14:01:06;;;;;;;0.80;0.70;;;29.50;41.60;;;;;;5035520;28;20427;-72
2022/08/22 14:03:40;;;;;;;0.70;0.60;;;29.80;41.80;;;;;;5035411;28;20511;-72
2022/08/22 14:06:21;;;;;;;0.70;0.63;;;30.10;41.30;;;;;;5035243;28;20440;-72
2022/08/22 14:08:50;;;;;;;0.80;0.60;;;30.30;40.30;;;;;;5035395;28;20494;-72
2022/08/22 14:11:28;;;;;;;0.80;0.70;;;30.10;39.50;;;;;;5035079;28;21000;-73
2022/08/22 14:13:58;;;;;;;0.80;0.70;;;30.50;40.30;;;;;;5035359;28;20462;-73
2022/08/22 14:16:29;;;;;;;0.70;0.60;;;30.70;39.30;;;;;;5035589;28;20471;-72
2022/08/22 14:19:00;;;;;;;0.70;0.63;;;30.40;39.60;;;;;;5035042;28;20432;-72
2022/08/22 14:21:36;;;;;;;0.70;0.60;;;30.50;39.50;;;;;;5035037;28;20483;-72
2022/08/22 14:24:09;;;;;;;1.00;0.90;;;30.70;38.90;;;;;;5035098;28;20431;-75
2022/08/22 14:26:39;;;;;;;0.70;0.60;;;30.30;39.30;;;;;;5034605;28;20431;-74
2022/08/22 14:29:13;;;;;;;1.07;0.97;;;30.20;39.90;;;;;;5034771;28;20447;-74
2022/08/22 14:31:40;;;;;;;0.70;0.60;;;30.60;39.60;;;;;;5034742;28;20807;-73
2022/08/22 14:34:12;;;;;;;0.70;0.63;;;31.10;39.40;;;;;;5034689;28;20466;-75
2022/08/22 14:36:46;;;;;;;0.70;0.60;;;31.40;37.90;;;;;;5034343;28;20428;-73
2022/08/22 14:39:25;;;;;;;0.70;0.60;;;31.30;38.10;;;;;;5034664;28;20436;-74
2022/08/22 14:41:56;;;;;;;0.73;0.63;;;30.80;38.40;;;;;;5034357;28;20467;-74
2022/08/22 14:44:28;;;;;;;1.43;0.80;;;30.50;39.80;;;;;;5034557;28;20493;-74
2022/08/22 14:46:59;;;;;;;0.70;0.60;;;30.70;40.10;;;;;;5034442;28;20436;-74
2022/08/22 14:49:34;;;;;;;0.80;0.60;;;31.10;38.80;;;;;;5034437;28;20450;-73
2022/08/22 14:52:08;;;;;;;0.83;0.70;;;31.30;37.90;;;;;;5034326;28;20462;-74
2022/08/22 14:54:41;;;;;;;0.80;0.70;;;31.50;38.90;;;;;;5034335;28;20514;-74
2022/08/22 14:57:13;;;;;;;0.70;0.67;;;32.10;38.70;;;;;;5034231;28;20432;-74
2022/08/22 14:59:47;;;;;;;0.70;0.60;;;32.80;37.20;;;;;;5034198;28;20440;-74
2022/08/22 15:02:17;;;;;;;0.70;0.60;;;33.40;36.90;;;;;;5033625;28;20494;-75
2022/08/22 15:04:47;;;;;;;0.70;0.60;;;33.80;36.00;;;;;;5034074;28;20463;-74
2022/08/22 15:07:23;;;;;;;0.67;0.57;;;34.20;34.90;;;;;;5034078;28;20478;-73
2022/08/22 15:09:54;;;;;;;0.70;0.70;;;34.20;34.60;;;;;;5034084;28;20428;-74
2022/08/22 15:12:27;;;;;;;0.70;0.50;;;33.80;34.90;;;;;;5033926;28;20471;-75
2022/08/22 15:14:58;;;;;;;0.80;0.60;;;32.80;35.70;;;;;;5033713;28;20919;-74
2022/08/22 15:17:39;;;;;;;0.80;0.60;;;32.30;37.70;;;;;;5035122;28;20937;-74
2022/08/22 15:20:12;;;;;;;1.00;0.67;;;31.70;37.50;;;;;;5033893;28;20432;-74
2022/08/22 15:22:42;;;;;;;0.70;0.60;;;30.90;38.40;;;;;;5033662;28;20487;-73
2022/08/22 15:25:15;;;;;;;0.90;0.60;;;30.50;39.00;;;;;;5033798;28;20436;-74
2022/08/22 15:27:46;;;;;;;1.00;0.80;;;30.20;39.40;;;;;;5033695;28;20432;-73
2022/08/22 15:30:14;;;;;;;0.70;0.60;;;29.80;40.10;;;;;;5033344;28;20451;-72
2022/08/22 15:32:43;;;;;;;1.07;0.70;;;29.30;40.90;;;;;;5033440;28;20471;-73
2022/08/22 15:35:14;;;;;;;0.70;0.70;;;28.90;41.60;;;;;;5033600;28;20451;-74
2022/08/22 15:37:57;;;;;;;0.70;0.60;;;29.10;42.00;;;;;;5033631;28;20435;-73
2022/08/22 15:40:35;;;;;;;0.93;0.60;;;29.30;41.40;;;;;;5033495;28;20443;-74
2022/08/22 15:43:15;;;;;;;0.80;0.60;;;29.70;40.70;;;;;;5033395;28;20475;-73
2022/08/22 15:45:42;;;;;;;1.00;0.70;;;30.30;39.90;;;;;;5033500;28;20467;-73
2022/08/22 15:48:12;;;;;;;0.70;0.60;;;30.30;40.20;;;;;;5033433;28;20478;-73
2022/08/22 15:50:54;;;;;;;0.70;0.70;;;30.20;40.10;;;;;;5033020;28;21007;-73
2022/08/22 15:53:25;;;;;;;0.70;0.60;;;30.00;40.90;;;;;;5034179;28;20474;-74
2022/08/22 15:56:20;;;;;;;0.80;0.70;;;29.60;41.70;;;;;;5033458;28;20481;-74
2022/08/22 15:58:51;;;;;;;0.80;0.60;;;29.50;42.10;;;;;;5033381;28;20490;-73
2022/08/22 16:01:21;;;;;;;0.70;0.60;;;29.70;41.40;;;;;;5033123;28;20506;-73
2022/08/22 16:03:56;;;;;;;0.70;0.70;;;29.70;41.80;;;;;;5032866;28;20482;-73
2022/08/22 16:06:49;;;;;;;0.70;0.70;;;29.30;42.20;;;;;;5033033;28;20964;-72
2022/08/22 16:09:36;;;;;;;0.80;0.70;;;29.10;43.00;;;;;;5019955;28;20502;-73
2022/08/22 16:12:06;;;;;;;0.80;0.63;;;28.80;43.50;;;;;;5032486;28;20488;-73
2022/08/22 16:14:50;;;;;;;0.70;0.60;;;28.70;43.40;;;;;;5034373;28;20527;-73
2022/08/22 16:17:40;;;;;;;0.70;0.70;;;28.80;43.20;;;;;;5032966;28;20436;-73
2022/08/22 16:20:45;;;;;;;0.70;0.60;;;28.90;42.90;;;;;;5025081;28;20966;-73
2022/08/22 16:23:12;;;;;;;0.70;0.60;;;29.00;42.70;;;;;;5033924;28;20467;-74
2022/08/22 16:26:14;;;;;;;0.70;0.63;;;28.40;43.60;;;;;;5033114;28;20447;-78
2022/08/22 16:28:57;;;;;;;0.70;0.70;;;28.20;44.00;;;;;;4972115;28;20426;-77
2022/08/22 16:31:28;;;;;;;0.80;0.70;;;28.30;44.00;;;;;;4973578;28;20702;-75
2022/08/22 16:33:58;;;;;;;0.70;0.70;;;28.30;44.30;;;;;;5008076;28;20810;-75
2022/08/22 16:36:46;;;;;;;0.70;0.70;;;28.20;43.90;;;;;;5032998;28;20447;-75
2022/08/22 16:39:34;;;;;;;0.80;0.67;;;28.20;44.10;;;;;;5033125;28;20442;-75
2022/08/22 16:42:23;;;;;;;0.70;0.60;;;28.00;44.20;;;;;;5033579;28;20474;-75
2022/08/22 16:44:54;;;;;;;0.70;0.60;;;28.30;44.10;;;;;;5037101;28;20443;-75